2V6

Yuma Municipalcipal Airport

Yuma, Colorado, USA
METAR K2V6 170434Z AUTO 36009KT 10SM CLR 02/M03 A3004 RMK AO2
Observed Flight Rules
Nov-17 @ 04:34 UTC (20 minutes ago) Visual Flight Rules
Wind Visibility Clouds
360° at 9 knots 10 miles
  • Clear skies
Temperatures Readings
Current 2°C / 36°F
Dewpoint -3°C / 27°F
Humidity 70%
Altimeter 30.04" Hg
Pressure 1017 hPa
Elevation 1261
METAR K2V6 170434Z AUTO 36009KT 10SM CLR 02/M03 A3004 RMK AO2
Observed Flight Rules
Nov-17 @ 04:34 UTC
(20 minutes ago)
VFR
Wind Visibility
360° at 9 knots 10 miles
Clouds
  • Clear skies
Temperature Dewpoint
2°C / 36°F -3°C / 27°F
Humidity Altimeter Pressure
70% 30.04" Hg 1017 hPa